^^
Meteo Knjazevac Station Historical Data
Daily Summary for November 28, 2021 Units:  Metric    English   Both
Daily Weekly Monthly Yearly Custom
  High: Low: Average:
Temperature: 16.4 °C 3.2 °C 10.2 °C
Dew Point: 10 °C 3.1 °C 7.4 °C
Humidity: 99% 59% 85%
Wind Speed: 12.9km/h 0km/h 5km/h
Wind Gust: 29km/h - -
Wind- - South
Pressure: 1003.6 hPa 996.5 hPa -
Precipitation: 1.27 mm    
Historical Graphs
 
 
Tabular Data for November 28, 2021
Time Temperature Dew Point Pressure Wind Wind Speed Wind Gust Humidity Rainfall Rate (Hourly) solar Conditions
00:00 6 °C 5.7 °C 1003.6 hPa Calm   4.8 km/h 98% 0 mm 0 W/m2
00:10 5.9 °C 5.6 °C 1003.6 hPa North 1.6 km/h 4.8 km/h 98% 0.25 mm 0 W/m2
00:20 5.9 °C 5.6 °C 1003.6 hPa Calm   3.2 km/h 98% 0 mm 0 W/m2
00:30 5.8 °C 5.5 °C 1003.3 hPa West 1.6 km/h 3.2 km/h 98% 0 mm 0 W/m2
00:40 5.8 °C 5.5 °C 1003.3 hPa Calm   4.8 km/h 98% 0 mm 0 W/m2
00:50 5.8 °C 5.5 °C 1002.9 hPa Calm   3.2 km/h 98% 0 mm 0 W/m2
01:00 5.7 °C 5.4 °C 1003.3 hPa West 1.6 km/h 4.8 km/h 98% 0 mm 0 W/m2
01:10 5.7 °C 5.6 °C 1002.9 hPa WNW 1.6 km/h 4.8 km/h 99% 0 mm 0 W/m2
01:20 5.7 °C 5.6 °C 1002.9 hPa Calm   3.2 km/h 99% 0 mm 0 W/m2
01:30 5.7 °C 5.6 °C 1002.9 hPa Calm   3.2 km/h 99% 0 mm 0 W/m2
01:40 5.7 °C 5.5 °C 1002.9 hPa NNE 3.2 km/h 4.8 km/h 99% 0 mm 0 W/m2
01:50 5.5 °C 5.3 °C 1002.9 hPa NNE 1.6 km/h 6.4 km/h 99% 0 mm 0 W/m2
02:00 5.5 °C 5.3 °C 1002.9 hPa NNE 1.6 km/h 4.8 km/h 99% 0 mm 0 W/m2
02:10 5.6 °C 5.4 °C 1002.9 hPa Calm   4.8 km/h 99% 0 mm 0 W/m2
02:20 5.6 °C 5.4 °C 1002.9 hPa Calm   3.2 km/h 99% 0 mm 0 W/m2
02:30 5.5 °C 5.3 °C 1002.9 hPa West 4.8 km/h 6.4 km/h 99% 0 mm 0 W/m2
02:40 5.2 °C 5.1 °C 1002.6 hPa West 3.2 km/h 8 km/h 99% 0 mm 0 W/m2
02:50 5.1 °C 4.9 °C 1002.3 hPa WNW 3.2 km/h 4.8 km/h 99% 0 mm 0 W/m2
03:00 5 °C 4.8 °C 1002.3 hPa WNW 1.6 km/h 8 km/h 99% 0 mm 0 W/m2
03:10 4.9 °C 4.8 °C 1002.3 hPa North 3.2 km/h 4.8 km/h 99% 0 mm 0 W/m2
03:20 4.8 °C 4.7 °C 1002.3 hPa NNW 1.6 km/h 3.2 km/h 99% 0 mm 0 W/m2
03:30 4.7 °C 4.6 °C 1002.3 hPa Calm   3.2 km/h 99% 0 mm 0 W/m2
03:40 4.5 °C 4.3 °C 1002.3 hPa WSW 4.8 km/h 6.4 km/h 99% 0 mm 0 W/m2
03:50 4.3 °C 4.2 °C 1002.3 hPa WSW 1.6 km/h 4.8 km/h 99% 0 mm 0 W/m2
04:00 4.2 °C 4.1 °C 1002.3 hPa WNW 1.6 km/h 4.8 km/h 99% 0 mm 0 W/m2
04:10 4.2 °C 4.1 °C 1002.3 hPa NNE 4.8 km/h 8 km/h 99% 0 mm 0 W/m2
04:20 4.1 °C 3.9 °C 1002.3 hPa NNE 3.2 km/h 8 km/h 99% 0 mm 0 W/m2
04:30 4.1 °C 3.9 °C 1002.6 hPa NNE 3.2 km/h 8 km/h 99% 0 mm 0 W/m2
04:40 4.1 °C 3.9 °C 1002.9 hPa Calm   3.2 km/h 99% 0 mm 0 W/m2
04:50 4.2 °C 4.1 °C 1002.9 hPa NNE 4.8 km/h 8 km/h 99% 0 mm 0 W/m2
05:00 4.2 °C 4.1 °C 1002.9 hPa NNE 1.6 km/h 6.4 km/h 99% 0 mm 0 W/m2
05:10 4.2 °C 4.1 °C 1002.6 hPa Calm   4.8 km/h 99% 0 mm 0 W/m2
05:20 4.2 °C 4.1 °C 1002.9 hPa NW 1.6 km/h 3.2 km/h 99% 0 mm 0 W/m2
05:30 4.1 °C 3.9 °C 1002.9 hPa West 4.8 km/h 8 km/h 99% 0 mm 0 W/m2
05:40 4 °C 3.8 °C 1002.9 hPa West 4.8 km/h 8 km/h 99% 0 mm 0 W/m2
05:50 3.9 °C 3.8 °C 1002.6 hPa Calm   6.4 km/h 99% 0 mm 0 W/m2
06:00 3.7 °C 3.6 °C 1002.6 hPa WSW 4.8 km/h 8 km/h 99% 0 mm 0 W/m2
06:10 3.6 °C 3.4 °C 1002.9 hPa WSW 4.8 km/h 9.7 km/h 99% 0 mm 0 W/m2
06:20 3.5 °C 3.3 °C 1002.6 hPa West 4.8 km/h 9.7 km/h 99% 0 mm 0 W/m2
06:30 3.4 °C 3.3 °C 1002.9 hPa West 8 km/h 11.3 km/h 99% 0 mm 0 W/m2
06:40 3.3 °C 3.2 °C 1002.9 hPa West 4.8 km/h 9.7 km/h 99% 0 mm 3 W/m2
06:50 3.2 °C 3.1 °C 1002.9 hPa WNW 3.2 km/h 8 km/h 99% 0 mm 8 W/m2
07:00 3.2 °C 3.1 °C 1002.6 hPa WNW 3.2 km/h 8 km/h 99% 0 mm 12 W/m2
07:10 3.2 °C 3.1 °C 1002.9 hPa WNW 3.2 km/h 8 km/h 99% 0 mm 20 W/m2
07:20 3.7 °C 3.6 °C 1002.9 hPa West 4.8 km/h 9.7 km/h 99% 0 mm 31 W/m2
07:30 4 °C 3.8 °C 1002.9 hPa West 4.8 km/h 11.3 km/h 99% 0 mm 29 W/m2
07:40 4.6 °C 4.4 °C 1003.3 hPa SSW 3.2 km/h 11.3 km/h 99% 0 mm 32 W/m2
07:50 5.1 °C 4.9 °C 1003.3 hPa NE 3.2 km/h 12.9 km/h 99% 0 mm 38 W/m2
08:00 5.2 °C 5 °C 1003.3 hPa NE 11.3 km/h 19.3 km/h 99% 0 mm 49 W/m2
08:10 5.6 °C 5.4 °C 1003.3 hPa NNE 11.3 km/h 19.3 km/h 99% 0 mm 143 W/m2
08:20 6.1 °C 5.9 °C 1002.9 hPa NE 3.2 km/h 17.7 km/h 99% 0 mm 92 W/m2
08:30 6.4 °C 6.3 °C 1002.6 hPa NNE 8 km/h 14.5 km/h 99% 0 mm 86 W/m2
08:40 6.7 °C 6.6 °C 1002.6 hPa NNE 8 km/h 9.7 km/h 99% 0 mm 201 W/m2
08:50 7.8 °C 7.7 °C 1002.3 hPa North 1.6 km/h 8 km/h 99% 0 mm 220 W/m2
09:00 8.7 °C 8.6 °C 1002.3 hPa WSW 3.2 km/h 6.4 km/h 99% 0 mm 153 W/m2
09:10 9.4 °C 8.8 °C 1002.6 hPa SSW 1.6 km/h 8 km/h 96% 0 mm 206 W/m2
09:20 10.2 °C 9.3 °C 1002.9 hPa ESE 8 km/h 11.3 km/h 94% 0 mm 192 W/m2
09:30 10.5 °C 9.1 °C 1002.9 hPa NE 8 km/h 14.5 km/h 91% 0 mm 137 W/m2
09:40 11 °C 9.1 °C 1002.9 hPa ENE 1.6 km/h 19.3 km/h 88% 0 mm 150 W/m2
09:50 11.2 °C 9.3 °C 1002.9 hPa ESE 4.8 km/h 11.3 km/h 88% 0 mm 202 W/m2
10:00 12 °C 9.4 °C 1002.6 hPa SE 1.6 km/h 9.7 km/h 84% 0 mm 291 W/m2
10:10 12.8 °C 10 °C 1002.3 hPa ESE 4.8 km/h 12.9 km/h 83% 0 mm 192 W/m2
10:20 13.3 °C 9.9 °C 1002.3 hPa SE 8 km/h 14.5 km/h 80% 0 mm 162 W/m2
10:30 13.7 °C 9.7 °C 1002.3 hPa South 1.6 km/h 20.9 km/h 77% 0 mm 245 W/m2
10:40 14.2 °C 9.8 °C 1002.3 hPa SW 8 km/h 12.9 km/h 75% 0 mm 225 W/m2
10:50 14.7 °C 9.3 °C 1002.3 hPa SSW 4.8 km/h 22.5 km/h 70% 0 mm 222 W/m2
11:00 14.9 °C 9.7 °C 1001.9 hPa SSE 1.6 km/h 12.9 km/h 71% 0 mm 276 W/m2
11:10 15.2 °C 9.8 °C 1001.9 hPa SE 4.8 km/h 12.9 km/h 70% 0 mm 239 W/m2
11:20 15.4 °C 9.7 °C 1001.9 hPa SE 11.3 km/h 20.9 km/h 69% 0 mm 167 W/m2
11:30 15.3 °C 9.7 °C 1001.6 hPa SE 11.3 km/h 19.3 km/h 69% 0 mm 262 W/m2
11:40 15.4 °C 9.5 °C 1001.6 hPa SE 11.3 km/h 19.3 km/h 68% 0 mm 299 W/m2
11:50 15.6 °C 9.7 °C 1001.2 hPa SSE 8 km/h 16.1 km/h 68% 0 mm 187 W/m2
12:00 15.6 °C 9.7 °C 1001.2 hPa South 9.7 km/h 19.3 km/h 68% 0 mm 274 W/m2
12:10 15.7 °C 9.6 °C 1001.2 hPa South 11.3 km/h 22.5 km/h 67% 0 mm 246 W/m2
12:20 15.9 °C 9.2 °C 1001.2 hPa SSW 11.3 km/h 20.9 km/h 64% 0 mm 191 W/m2
12:30 16.1 °C 9.1 °C 1001.6 hPa SSW 11.3 km/h 24.1 km/h 63% 0 mm 176 W/m2
12:40 16.1 °C 9.1 °C 1001.2 hPa South 9.7 km/h 20.9 km/h 63% 0 mm 199 W/m2
12:50 16.3 °C 9.5 °C 1001.2 hPa SSW 9.7 km/h 20.9 km/h 64% 0 mm 214 W/m2
13:00 16.4 °C 9.1 °C 1001.2 hPa SSW 11.3 km/h 27.4 km/h 62% 0 mm 122 W/m2
13:10 16.4 °C 9.1 °C 1001.2 hPa SSW 12.9 km/h 29 km/h 62% 0 mm 105 W/m2
13:20 16.4 °C 8.6 °C 1000.9 hPa South 12.9 km/h 29 km/h 60% 0 mm 111 W/m2
13:30 16.4 °C 8.6 °C 1000.6 hPa South 11.3 km/h 27.4 km/h 60% 0 mm 104 W/m2
13:40 16.2 °C 8.9 °C 1000.6 hPa SSE 9.7 km/h 20.9 km/h 62% 0 mm 88 W/m2
13:50 15.9 °C 8.9 °C 1000.6 hPa SE 9.7 km/h 22.5 km/h 63% 0 mm 83 W/m2
14:00 15.8 °C 8.8 °C 1000.2 hPa SE 11.3 km/h 22.5 km/h 63% 0 mm 75 W/m2
14:10 15.8 °C 8.8 °C 1000.2 hPa SE 9.7 km/h 20.9 km/h 63% 0 mm 70 W/m2
14:20 15.7 °C 8.7 °C 1000.2 hPa SE 11.3 km/h 20.9 km/h 63% 0 mm 58 W/m2
14:30 15.7 °C 8.7 °C 1000.2 hPa SE 8 km/h 14.5 km/h 63% 0 mm 53 W/m2
14:40 15.6 °C 8.6 °C 999.9 hPa SE 11.3 km/h 19.3 km/h 63% 0 mm 46 W/m2
14:50 15.6 °C 8.6 °C 999.9 hPa SE 4.8 km/h 19.3 km/h 63% 0 mm 39 W/m2
15:00 15.4 °C 8.4 °C 999.9 hPa SE 4.8 km/h 9.7 km/h 63% 0 mm 27 W/m2
15:10 15.3 °C 7.9 °C 999.9 hPa ESE 9.7 km/h 16.1 km/h 61% 0 mm 39 W/m2
15:20 15.6 °C 7.6 °C 999.5 hPa SE 8 km/h 19.3 km/h 59% 0 mm 11 W/m2
15:30 15.4 °C 7.7 °C 999.5 hPa ESE 8 km/h 16.1 km/h 60% 0 mm 10 W/m2
15:40 15.2 °C 8 °C 999.2 hPa East 4.8 km/h 16.1 km/h 62% 0 mm 3 W/m2
15:50 15 °C 8 °C 999.2 hPa East 9.7 km/h 14.5 km/h 63% 0 mm 1 W/m2
16:00 14.8 °C 7.9 °C 999.2 hPa ESE 8 km/h 16.1 km/h 63% 0 mm 0 W/m2
16:10 14.8 °C 8.1 °C 998.9 hPa East 9.7 km/h 16.1 km/h 64% 0 mm 0 W/m2
16:20 14.7 °C 7.9 °C 998.9 hPa East 4.8 km/h 16.1 km/h 64% 0 mm 0 W/m2
16:30 14.8 °C 7.8 °C 999.5 hPa East 4.8 km/h 12.9 km/h 63% 0 mm 0 W/m2
16:40 14.7 °C 7.5 °C 999.2 hPa ESE 3.2 km/h 8 km/h 62% 0 mm 0 W/m2
16:50 15 °C 7.3 °C 998.9 hPa SSE 4.8 km/h 17.7 km/h 60% 0 mm 0 W/m2
17:00 14.9 °C 7.2 °C 998.9 hPa South 4.8 km/h 12.9 km/h 60% 0 mm 0 W/m2
17:10 14.9 °C 7.2 °C 999.2 hPa SSW 9.7 km/h 22.5 km/h 60% 0 mm 0 W/m2
17:20 15.1 °C 8.1 °C 999.5 hPa South 12.9 km/h 27.4 km/h 63% 0 mm 0 W/m2
17:30 15 °C 8.2 °C 999.2 hPa SSW 12.9 km/h 27.4 km/h 64% 0 mm 0 W/m2
17:40 14.9 °C 8.2 °C 999.5 hPa SW 9.7 km/h 19.3 km/h 64% 0 mm 0 W/m2
17:50 14.9 °C 8.4 °C 999.2 hPa SW 4.8 km/h 14.5 km/h 65% 0 mm 0 W/m2
18:00 14.7 °C 8.2 °C 998.9 hPa SW 8 km/h 12.9 km/h 65% 0 mm 0 W/m2
18:10 14.6 °C 8.3 °C 998.9 hPa SW 8 km/h 11.3 km/h 66% 0 mm 0 W/m2
18:20 14.5 °C 8.7 °C 999.2 hPa SW 4.8 km/h 12.9 km/h 68% 0 mm 0 W/m2
18:30 14.2 °C 8.8 °C 999.5 hPa SSE 4.8 km/h 12.9 km/h 70% 0 mm 0 W/m2
18:40 13.8 °C 9.2 °C 999.2 hPa South 8 km/h 19.3 km/h 74% 0 mm 0 W/m2
18:50 13.2 °C 9.5 °C 999.5 hPa SW 8 km/h 11.3 km/h 78% 0 mm 0 W/m2
19:00 12.9 °C 9.3 °C 999.5 hPa SW 8 km/h 16.1 km/h 79% 0 mm 0 W/m2
19:10 12.6 °C 9.3 °C 999.5 hPa SW 4.8 km/h 14.5 km/h 80% 0 mm 0 W/m2
19:20 12.4 °C 9.6 °C 999.2 hPa WSW 3.2 km/h 8 km/h 83% 0 mm 0 W/m2
19:30 12.2 °C 9.8 °C 999.5 hPa West 4.8 km/h 8 km/h 85% 0 mm 0 W/m2
19:40 12 °C 9.7 °C 999.2 hPa Calm   8 km/h 86% 0 mm 0 W/m2
19:50 11.7 °C 9.8 °C 999.2 hPa NNE 3.2 km/h 9.7 km/h 88% 0 mm 0 W/m2
20:00 11.5 °C 9.7 °C 999.2 hPa Calm   4.8 km/h 89% 0 mm 0 W/m2
20:10 11.3 °C 9.6 °C 999.2 hPa NW 1.6 km/h 4.8 km/h 89% 0.25 mm 0 W/m2
20:20 11.2 °C 9.6 °C 999.2 hPa WNW 3.2 km/h 4.8 km/h 90% 0 mm 0 W/m2
20:30 11.1 °C 9.7 °C 998.9 hPa WNW 1.6 km/h 4.8 km/h 91% 0 mm 0 W/m2
20:40 10.9 °C 9.8 °C 998.9 hPa SW 3.2 km/h 4.8 km/h 93% 0 mm 0 W/m2
20:50 10.7 °C 9.8 °C 998.9 hPa SSW 1.6 km/h 4.8 km/h 94% 0 mm 0 W/m2
21:00 10.6 °C 9.8 °C 998.9 hPa SW 1.6 km/h 4.8 km/h 95% 0 mm 0 W/m2
21:10 10.5 °C 9.7 °C 998.5 hPa SSW 3.2 km/h 6.4 km/h 95% 0 mm 0 W/m2
21:20 10.3 °C 9.6 °C 998.5 hPa South 3.2 km/h 8 km/h 95% 0 mm 0 W/m2
21:30 10.3 °C 9.7 °C 998.5 hPa Calm   6.4 km/h 96% 0 mm 0 W/m2
21:40 10.2 °C 9.6 °C 998.5 hPa West 4.8 km/h 8 km/h 96% 0 mm 0 W/m2
21:50 10.2 °C 9.6 °C 998.2 hPa West 8 km/h 11.3 km/h 96% 0 mm 0 W/m2
22:00 10.1 °C 9.5 °C 997.9 hPa West 3.2 km/h 9.7 km/h 96% 0 mm 0 W/m2
22:10 10.1 °C 9.5 °C 997.5 hPa SSW 3.2 km/h 9.7 km/h 96% 0 mm 0 W/m2
22:20 10.1 °C 9.5 °C 997.9 hPa SSW 3.2 km/h 8 km/h 96% 0 mm 0 W/m2
22:30 10.1 °C 9.3 °C 997.9 hPa WSW 1.6 km/h 8 km/h 95% 0 mm 0 W/m2
22:40 10.2 °C 9.4 °C 997.9 hPa NNE 3.2 km/h 9.7 km/h 95% 0.25 mm 0 W/m2
22:50 10.1 °C 9.5 °C 997.9 hPa NNE 1.6 km/h 9.7 km/h 96% 0 mm 0 W/m2
23:00 10.1 °C 9.5 °C 997.2 hPa Calm   1.6 km/h 96% 0 mm 0 W/m2
23:10 10 °C 9.4 °C 997.5 hPa WNW 1.6 km/h 3.2 km/h 96% 0 mm 0 W/m2
23:20 9.9 °C 9.6 °C 997.2 hPa South 1.6 km/h 4.8 km/h 98% 0.25 mm 0 W/m2
23:30 9.8 °C 9.6 °C 997.2 hPa SW 4.8 km/h 9.7 km/h 98% 0 mm 0 W/m2
23:40 9.9 °C 9.6 °C 996.8 hPa SSE 3.2 km/h 9.7 km/h 98% 0 mm 0 W/m2
23:50 9.9 °C 9.6 °C 996.5 hPa NE 3.2 km/h 8 km/h 98% 0 mm 0 W/m2
Knjazevac, Serbia
Compliments of Weather Underground - 2 mb